createdAt,value
2019-05-26T14:36:55.414Z,100001.12
2019-05-26T14:39:26.901Z,99996.02
2019-05-26T14:41:58.314Z,99995.18
2019-05-26T14:44:29.851Z,99995.18
2019-05-26T14:47:01.331Z,100003.17
2019-05-26T14:49:32.791Z,100003.52
2019-05-26T14:52:04.312Z,100004.02
2019-05-26T14:54:35.958Z,100002.32
2019-05-26T14:57:07.532Z,100002.32
2019-05-26T14:59:39.012Z,99994.45
2019-05-26T15:02:10.595Z,100002.67
2019-05-26T15:04:42.133Z,99999.04
2019-05-26T15:07:13.581Z,99991.30
2019-05-26T15:09:44.931Z,99992.27
2019-05-26T15:12:16.413Z,99997.10
2019-05-26T15:14:47.865Z,99992.25
2019-05-26T15:17:19.479Z,99989.36
2019-05-26T15:19:50.978Z,99995.30
2019-05-26T15:22:22.472Z,99987.66
2019-05-26T15:24:54.085Z,99984.27
2019-05-26T15:27:25.570Z,99984.27
2019-05-26T15:29:57.127Z,99979.55
2019-05-26T15:32:28.649Z,99971.43
2019-05-26T15:35:00.128Z,99971.43
2019-05-26T15:37:31.711Z,99975.75
2019-05-26T15:40:03.654Z,99975.75
2019-05-26T15:42:35.219Z,99974.31
2019-05-26T15:45:08.852Z,99973.34
2019-05-26T15:47:40.457Z,99973.34
2019-05-26T15:50:13.727Z,99972.36
2019-05-26T15:52:45.431Z,99972.36
2019-05-26T15:55:17.241Z,99979.88
2019-05-26T15:57:48.823Z,99979.88
2019-05-26T16:00:21.156Z,99971.77
2019-05-26T16:02:52.664Z,99975.62
2019-05-26T16:08:23.397Z,99979.98
2019-05-26T16:10:54.836Z,99972.57
2019-05-26T16:13:26.357Z,99972.57
2019-05-26T16:15:57.861Z,99967.36
2019-05-26T16:18:34.725Z,99966.49
2019-05-26T16:21:14.521Z,99967.23
2019-05-26T16:23:39.355Z,99967.59
2019-05-26T16:26:10.855Z,99959.70
2019-05-26T16:28:42.248Z,99956.45
2019-05-26T16:31:13.758Z,99954.38
2019-05-26T16:33:45.241Z,99947.50
2019-05-26T16:36:16.669Z,99946.63
2019-05-26T16:38:48.162Z,99940.60
2019-05-26T16:41:19.820Z,99941.34
2019-05-26T16:43:51.382Z,99937.10
2019-05-26T16:46:22.808Z,99944.25
2019-05-26T16:48:54.983Z,99949.83
2019-05-26T16:51:26.658Z,99949.83
2019-05-26T16:53:58.099Z,99948.97
2019-05-26T16:56:29.631Z,99941.58
2019-05-26T16:59:00.911Z,99947.05
2019-05-26T17:01:32.298Z,99947.05
2019-05-26T17:04:03.859Z,99942.55
2019-05-26T17:06:35.464Z,99947.05
2019-05-26T17:09:09.300Z,99948.72
2019-05-26T17:11:40.899Z,99943.76
2019-05-26T17:14:12.269Z,99943.76
2019-05-26T17:16:43.793Z,99949.19
2019-05-26T17:19:15.269Z,99949.19
2019-05-26T17:21:46.836Z,99951.48
2019-05-26T17:24:18.260Z,99951.48
2019-05-26T17:26:49.655Z,99945.30
2019-05-26T17:29:21.108Z,99945.30
2019-05-26T17:31:52.689Z,99957.28
2019-05-26T17:34:24.049Z,99948.83
2019-05-26T17:36:55.674Z,99949.30
2019-05-26T17:39:27.208Z,99941.08
2019-05-26T17:41:58.798Z,99944.94
2019-05-26T17:44:30.328Z,99938.98
2019-05-26T17:47:01.656Z,99947.94
2019-05-26T17:49:33.128Z,99944.17
2019-05-26T17:52:04.647Z,99939.81
2019-05-26T17:54:36.189Z,99948.36
2019-05-26T17:57:07.750Z,99943.23
2019-05-26T17:59:39.288Z,99943.92
2019-05-26T18:02:11.469Z,99945.34
2019-05-26T18:04:43.035Z,99943.14
2019-05-26T18:07:14.587Z,99947.80
2019-05-26T18:09:46.148Z,99947.89
2019-05-26T18:12:17.660Z,99948.61
2019-05-26T18:14:49.147Z,99949.30
2019-05-26T18:17:20.691Z,99947.09
2019-05-26T18:19:52.269Z,99953.20
2019-05-26T18:22:23.828Z,99950.16
2019-05-26T18:24:58.764Z,99945.34
2019-05-26T18:27:47.412Z,99951.59
2019-05-26T18:30:19.073Z,99953.95
2019-05-26T18:32:50.629Z,99953.05
2019-05-26T18:35:22.168Z,99961.70
2019-05-26T18:37:54.471Z,99958.28
2019-05-26T18:40:26.010Z,99960.77
2019-05-26T18:42:58.088Z,99967.59
2019-05-26T18:45:29.690Z,99967.59
2019-05-26T18:48:03.682Z,99965.74
2019-05-26T18:50:35.648Z,99963.72
2019-05-26T18:53:07.227Z,99970.41
2019-05-26T18:55:38.631Z,99969.30
2019-05-26T18:58:10.252Z,99968.77
2019-05-26T19:00:41.765Z,99977.20
2019-05-26T19:03:13.320Z,99976.08
2019-05-26T19:05:44.969Z,99970.94
2019-05-26T19:08:16.552Z,99976.06
2019-05-26T19:10:48.090Z,99976.55
2019-05-26T19:13:19.707Z,99981.01
2019-05-26T19:15:51.115Z,99978.30
2019-05-26T19:21:00.718Z,99977.23
2019-05-26T19:23:32.111Z,99976.58
2019-05-26T20:56:16.940Z,99922.90
2019-05-26T20:58:48.334Z,99924.42
2019-05-26T21:01:19.991Z,99925.75
2019-05-26T21:03:51.807Z,99918.55
2019-05-26T21:06:23.618Z,99923.66
2019-05-26T21:08:57.541Z,99930.09
2019-05-26T21:11:29.180Z,99927.55
2019-05-26T21:14:00.820Z,99932.73
2019-05-26T21:16:32.588Z,99928.70
2019-05-26T21:19:04.071Z,99927.11
2019-05-26T21:21:36.681Z,99920.33
2019-05-26T21:24:08.258Z,99925.37
2019-05-26T21:26:39.898Z,99923.56
2019-05-26T21:29:13.165Z,99924.08
2019-05-26T21:31:44.859Z,99928.42
2019-05-26T21:34:16.656Z,99927.86
2019-05-26T21:36:49.900Z,99929.95
2019-05-26T21:39:22.651Z,99928.14
2019-05-26T21:41:54.268Z,99927.30
2019-05-26T21:44:26.162Z,99930.02
2019-05-26T21:46:57.780Z,99924.46
2019-05-26T21:49:29.350Z,99920.74
2019-05-26T21:52:00.859Z,99923.11
2019-05-26T21:54:33.538Z,99916.85
2019-05-26T21:57:05.218Z,99921.61
2019-05-26T21:59:37.099Z,99919.91
2019-05-26T22:02:09.018Z,99911.41
2019-05-26T22:04:40.661Z,99906.30
2019-05-26T22:07:12.538Z,99909.03
2019-05-26T22:09:47.764Z,99906.95
2019-05-26T22:12:19.460Z,99908.38
2019-05-26T22:14:51.183Z,99908.55
2019-05-26T22:17:23.645Z,99908.16
2019-05-26T22:19:55.458Z,99903.51
2019-05-26T22:22:27.058Z,99901.59
2019-05-26T22:24:58.659Z,99906.03
2019-05-26T22:27:30.299Z,99907.91
2019-05-26T22:30:02.269Z,99908.15
2019-05-26T22:32:35.453Z,99899.95
2019-05-26T22:35:08.687Z,99894.36
2019-05-26T22:37:40.299Z,99891.16
2019-05-26T22:40:14.549Z,99891.16
2019-05-26T22:42:47.698Z,99889.18
2019-05-26T22:45:19.477Z,99885.23
2019-05-26T22:47:52.664Z,99886.72
2019-05-26T22:50:24.388Z,99885.39
2019-05-26T22:52:55.945Z,99885.23
2019-05-26T22:55:28.830Z,99886.55
2019-05-26T22:58:00.569Z,99882.41
2019-05-26T23:00:32.142Z,99880.92
2019-05-26T23:03:03.805Z,99878.08
2019-05-26T23:05:35.284Z,99873.08
2019-05-26T23:08:06.791Z,99871.30
2019-05-26T23:10:38.350Z,99876.80
2019-05-26T23:13:09.906Z,99860.23
2019-05-26T23:15:42.873Z,99863.47
2019-05-26T23:18:14.414Z,99861.66
2019-05-26T23:20:46.864Z,99864.13
2019-05-26T23:23:18.378Z,99869.33
2019-05-26T23:25:50.018Z,99866.31
2019-05-26T23:28:21.459Z,99869.51
2019-05-26T23:30:53.022Z,99862.52
2019-05-26T23:33:24.576Z,99863.47
2019-05-26T23:35:56.129Z,99856.55
2019-05-26T23:38:27.468Z,99863.81
2019-05-26T23:40:59.125Z,99854.57
2019-05-26T23:43:31.911Z,99858.15
2019-05-26T23:46:03.416Z,99856.72
2019-05-26T23:48:34.921Z,99844.95
2019-05-26T23:51:06.572Z,99845.78
2019-05-26T23:53:37.948Z,99839.36
2019-05-26T23:56:09.499Z,99841.94
2019-05-26T23:58:41.149Z,99844.95
